Emmanuel — WDE6384 — position and weather

sailwx.info

Track history (hours):
 
Tides and Currents Weather Stations Pressure Air Temp Water Temp Dewpoint Dewpoint Depression Visibility Wind Speed Wind Dir Waves Ship Positions

Emmanuel

Owner: Marquette Transportation Company Gulf-Inland, LLC, Jefferson, LA. More information available from US FCC via Universal Licensing System and Coast Guard Vessel Documentation Center.

Last reported at 2017-Nov-20 00:30 UTC. Time now 2017-Nov-23 05:45 UTC.
Position N 29°47' W 092°11'.

Length 95 m; draft 2.9 m.

Type: Towing. MMSI: 367379540.

Date/timePositionNaut miles runAvg speedWind from/ knotsBaromVisibWave heightAir tempDewpointWater temp
2017-Nov-20 00:30N 29°47' W 092°11'2 3.3
2017-Nov-20 00:00N 29°47' W 092°13'2 4.6
2017-Nov-19 23:30N 29°48' W 092°16'2 4.1
2017-Nov-19 23:00N 29°49' W 092°18'2 3.7
2017-Nov-19 22:30N 29°50' W 092°19'38 3.7
2017-Nov-19 12:12N 29°56' W 093°03'1 3.8
2017-Nov-19 11:56N 29°56' W 093°04'1 3.0
2017-Nov-19 11:27N 29°56' W 093°06'2 3.7
2017-Nov-19 11:00N 29°56' W 093°08'2 3.5
2017-Nov-19 10:30N 29°56' W 093°10'2 3.8
2017-Nov-19 10:00N 29°58' W 093°11'2 3.8
2017-Nov-19 09:30N 29°59' W 093°13'2 3.3
2017-Nov-19 09:00N 30°00' W 093°14'1 2.8
2017-Nov-19 08:30N 30°02' W 093°14'1 1.7
2017-Nov-19 08:00N 30°02' W 093°15'2 3.5
2017-Nov-19 07:30N 30°04' W 093°16'2 3.7
2017-Nov-19 07:00N 30°05' W 093°17'0 0.8
2017-Nov-19 06:30N 30°05' W 093°18'1 1.1
2017-Nov-19 06:00N 30°06' W 093°18'0 0.0
2017-Nov-19 05:30N 30°06' W 093°18'0 0.0
2017-Nov-19 05:00N 30°06' W 093°18'0 0.0
2017-Nov-19 04:30N 30°06' W 093°18'0 0.0
2017-Nov-19 04:00N 30°06' W 093°18'0 0.0
2017-Nov-19 03:30N 30°06' W 093°18'0 0.0
2017-Nov-19 03:00N 30°06' W 093°18'0 0.0
2017-Nov-19 02:30N 30°06' W 093°18'0 0.0
2017-Nov-19 02:00N 30°06' W 093°18'0 0.0
2017-Nov-19 01:30N 30°06' W 093°18'0 0.0
2017-Nov-19 01:00N 30°06' W 093°18'0 0.0
2017-Nov-19 00:30N 30°06' W 093°18'0 0.0
2017-Nov-19 00:00N 30°06' W 093°18'0 0.1
2017-Nov-18 23:30N 30°06' W 093°18'0 0.0
2017-Nov-18 23:00N 30°06' W 093°18'0 0.0
2017-Nov-18 22:30N 30°06' W 093°18'0 0.0
2017-Nov-18 22:00N 30°06' W 093°18'0 0.0
2017-Nov-18 21:30N 30°06' W 093°18'0 0.0
2017-Nov-18 21:00N 30°06' W 093°18'0 0.0
2017-Nov-18 20:30N 30°06' W 093°18'0 0.0
2017-Nov-18 20:00N 30°06' W 093°18'0 0.0
2017-Nov-18 19:30N 30°06' W 093°18'0 0.0
2017-Nov-18 19:00N 30°06' W 093°18'0 0.0
2017-Nov-18 18:30N 30°06' W 093°18'0 0.0
2017-Nov-18 18:00N 30°06' W 093°18'1 2.0
2017-Nov-18 17:30N 30°06' W 093°19'2 4.2
2017-Nov-18 17:00N 30°04' W 093°21'1 2.8
2017-Nov-18 16:30N 30°04' W 093°22'2 4.3
2017-Nov-18 16:00N 30°04' W 093°25'2 4.5
2017-Nov-18 15:30N 30°04' W 093°27'2 4.5
2017-Nov-18 15:00N 30°04' W 093°30'79 3.8
2017-Nov-17 18:21N 29°29' W 094°52'2 5.8
2017-Nov-17 17:59N 29°31' W 094°53'3 6.9
2017-Nov-17 17:30N 29°33' W 094°55'3 6.8
2017-Nov-17 17:00N 29°36' W 094°57'4 7.3
2017-Nov-17 16:30N 29°40' W 094°58'4 7.1
2017-Nov-17 16:00N 29°42' W 095°01'3 6.4
2017-Nov-17 15:29N 29°45' W 095°04'1 0.4
2017-Nov-17 13:40N 29°45' W 095°04'1 6.1
2017-Nov-17 13:30N 29°45' W 095°04'3 5.3
2017-Nov-17 13:00N 29°43' W 095°01'3 5.5
2017-Nov-17 12:28N 29°41' W 094°59'2 4.5
2017-Nov-17 12:00N 29°39' W 094°58'2 4.4
2017-Nov-17 11:30N 29°37' W 094°57'2 4.3
2017-Nov-17 11:00N 29°35' W 094°56'2 4.2
2017-Nov-17 10:30N 29°33' W 094°55'65 3.5
2017-Nov-16 15:50N 29°60' W 093°47'0 0.6
2017-Nov-16 15:30N 29°60' W 093°47'1 2.5
2017-Nov-16 14:59N 30°01' W 093°46'0 0.1
2017-Nov-16 14:30N 30°01' W 093°46'0 0.0
2017-Nov-16 13:59N 30°01' W 093°46'0 0.0
2017-Nov-16 13:23N 30°01' W 093°46'0 0.0
2017-Nov-16 12:34N 30°01' W 093°46'0 0.0
2017-Nov-16 12:30N 30°01' W 093°46'0 0.0
2017-Nov-16 12:00N 30°01' W 093°46'0 0.0
2017-Nov-16 11:30N 30°01' W 093°46'0 0.0
2017-Nov-16 11:00N 30°01' W 093°46'0 0.0
2017-Nov-16 10:30N 30°01' W 093°46'0 0.1
2017-Nov-16 10:00N 30°01' W 093°46'0 0.1
2017-Nov-16 09:30N 30°01' W 093°46'0 0.0
2017-Nov-16 09:00N 30°01' W 093°46'0 0.0
2017-Nov-16 08:30N 30°01' W 093°46'0 0.0
2017-Nov-16 08:00N 30°01' W 093°46'0 0.0
2017-Nov-16 06:38N 30°01' W 093°46'0 0.0
2017-Nov-16 06:30N 30°01' W 093°46'1 0.8
2017-Nov-16 05:43N 30°01' W 093°45'2 4.6
2017-Nov-16 05:22N 30°02' W 093°44'2 4.8
2017-Nov-16 05:00N 30°03' W 093°42'3 4.6
2017-Nov-16 04:25N 30°04' W 093°39'2 4.3
2017-Nov-16 04:00N 30°04' W 093°37'2 4.4
2017-Nov-16 03:30N 30°04' W 093°35'2 4.3
2017-Nov-16 03:00N 30°04' W 093°32'2 4.4
2017-Nov-16 02:30N 30°04' W 093°30'2 3.6
2017-Nov-16 02:00N 30°04' W 093°28'2 3.7
2017-Nov-16 01:30N 30°04' W 093°25'2 4.4
2017-Nov-16 01:00N 30°04' W 093°23'2 3.8
2017-Nov-16 00:30N 30°04' W 093°21'1 1.1
2017-Nov-16 00:00N 30°04' W 093°20'2 3.8
2017-Nov-15 23:30N 30°06' W 093°19'1 2.9
2017-Nov-15 23:00N 30°05' W 093°18'0 0.7
2017-Nov-15 22:30N 30°05' W 093°17'2 4.1
2017-Nov-15 22:00N 30°03' W 093°16'2 3.4
2017-Nov-15 21:30N 30°02' W 093°15'2 3.4
2017-Nov-15 21:00N 30°01' W 093°14'2 3.6
2017-Nov-15 20:30N 29°59' W 093°12'2 4.0
2017-Nov-15 20:00N 29°58' W 093°11'2 3.9
2017-Nov-15 19:30N 29°56' W 093°09'2 4.0
2017-Nov-15 19:00N 29°56' W 093°07'2 3.8
2017-Nov-15 18:28N 29°56' W 093°05'21 2.4
2017-Nov-15 09:46N 29°56' W 092°40'0 0.1
2017-Nov-15 09:15N 29°56' W 092°40'11 2.1
2017-Nov-15 04:03N 29°54' W 092°28'0 3.9
2017-Nov-15 04:00N 29°54' W 092°28'2 3.9
2017-Nov-15 03:30N 29°53' W 092°25'2 3.8
2017-Nov-15 02:58N 29°53' W 092°23'2 3.6
2017-Nov-15 02:30N 29°51' W 092°22'2 3.4
2017-Nov-15 02:00N 29°51' W 092°20'2 3.7
2017-Nov-15 01:30N 29°50' W 092°18'2 3.8
2017-Nov-15 01:00N 29°49' W 092°17'2 4.1
2017-Nov-15 00:30N 29°48' W 092°14'2 3.6
2017-Nov-15 00:00N 29°47' W 092°13'0 1.0
2017-Nov-14 23:30N 29°47' W 092°12'1 1.9
2017-Nov-14 23:00N 29°47' W 092°11'2 4.3
2017-Nov-14 22:30N 29°47' W 092°09'2 4.3
2017-Nov-14 22:00N 29°48' W 092°06'2 4.3
2017-Nov-14 21:30N 29°48' W 092°04'2 4.6
2017-Nov-14 21:00N 29°49' W 092°01'  
Track history (hours):
 
Tides and Currents Weather Stations Pressure Air Temp Water Temp Dewpoint Dewpoint Depression Visibility Wind Speed Wind Dir Waves Ship Positions

Emmanuel

Owner: Marquette Transportation Company Gulf-Inland, LLC, Jefferson, LA. More information available from US FCC via Universal Licensing System and Coast Guard Vessel Documentation Center.

Last reported at 2017-Nov-20 00:30 UTC. Time now 2017-Nov-23 05:45 UTC.
Position N 29°47' W 092°11'.

Length 95 m; draft 2.9 m.

Type: Towing. MMSI: 367379540.

Date/timePositionNaut miles runAvg speedWind from/ knotsBaromVisibWave heightAir tempDewpointWater temp
2017-Nov-20 00:30N 29°47' W 092°11'2 3.3
2017-Nov-20 00:00N 29°47' W 092°13'2 4.6
2017-Nov-19 23:30N 29°48' W 092°16'2 4.1
2017-Nov-19 23:00N 29°49' W 092°18'2 3.7
2017-Nov-19 22:30N 29°50' W 092°19'38 3.7
2017-Nov-19 12:12N 29°56' W 093°03'1 3.8
2017-Nov-19 11:56N 29°56' W 093°04'1 3.0
2017-Nov-19 11:27N 29°56' W 093°06'2 3.7
2017-Nov-19 11:00N 29°56' W 093°08'2 3.5
2017-Nov-19 10:30N 29°56' W 093°10'2 3.8
2017-Nov-19 10:00N 29°58' W 093°11'2 3.8
2017-Nov-19 09:30N 29°59' W 093°13'2 3.3
2017-Nov-19 09:00N 30°00' W 093°14'1 2.8
2017-Nov-19 08:30N 30°02' W 093°14'1 1.7
2017-Nov-19 08:00N 30°02' W 093°15'2 3.5
2017-Nov-19 07:30N 30°04' W 093°16'2 3.7
2017-Nov-19 07:00N 30°05' W 093°17'0 0.8
2017-Nov-19 06:30N 30°05' W 093°18'1 1.1
2017-Nov-19 06:00N 30°06' W 093°18'0 0.0
2017-Nov-19 05:30N 30°06' W 093°18'0 0.0
2017-Nov-19 05:00N 30°06' W 093°18'0 0.0
2017-Nov-19 04:30N 30°06' W 093°18'0 0.0
2017-Nov-19 04:00N 30°06' W 093°18'0 0.0
2017-Nov-19 03:30N 30°06' W 093°18'0 0.0
2017-Nov-19 03:00N 30°06' W 093°18'0 0.0
2017-Nov-19 02:30N 30°06' W 093°18'0 0.0
2017-Nov-19 02:00N 30°06' W 093°18'0 0.0
2017-Nov-19 01:30N 30°06' W 093°18'0 0.0
2017-Nov-19 01:00N 30°06' W 093°18'0 0.0
2017-Nov-19 00:30N 30°06' W 093°18'0 0.0
2017-Nov-19 00:00N 30°06' W 093°18'0 0.1
2017-Nov-18 23:30N 30°06' W 093°18'0 0.0
2017-Nov-18 23:00N 30°06' W 093°18'0 0.0
2017-Nov-18 22:30N 30°06' W 093°18'0 0.0
2017-Nov-18 22:00N 30°06' W 093°18'0 0.0
2017-Nov-18 21:30N 30°06' W 093°18'0 0.0
2017-Nov-18 21:00N 30°06' W 093°18'0 0.0
2017-Nov-18 20:30N 30°06' W 093°18'0 0.0
2017-Nov-18 20:00N 30°06' W 093°18'0 0.0
2017-Nov-18 19:30N 30°06' W 093°18'0 0.0
2017-Nov-18 19:00N 30°06' W 093°18'0 0.0
2017-Nov-18 18:30N 30°06' W 093°18'0 0.0
2017-Nov-18 18:00N 30°06' W 093°18'1 2.0
2017-Nov-18 17:30N 30°06' W 093°19'2 4.2
2017-Nov-18 17:00N 30°04' W 093°21'1 2.8
2017-Nov-18 16:30N 30°04' W 093°22'2 4.3
2017-Nov-18 16:00N 30°04' W 093°25'2 4.5
2017-Nov-18 15:30N 30°04' W 093°27'2 4.5
2017-Nov-18 15:00N 30°04' W 093°30'79 3.8
2017-Nov-17 18:21N 29°29' W 094°52'2 5.8
2017-Nov-17 17:59N 29°31' W 094°53'3 6.9
2017-Nov-17 17:30N 29°33' W 094°55'3 6.8
2017-Nov-17 17:00N 29°36' W 094°57'4 7.3
2017-Nov-17 16:30N 29°40' W 094°58'4 7.1
2017-Nov-17 16:00N 29°42' W 095°01'3 6.4
2017-Nov-17 15:29N 29°45' W 095°04'1 0.4
2017-Nov-17 13:40N 29°45' W 095°04'1 6.1
2017-Nov-17 13:30N 29°45' W 095°04'3 5.3
2017-Nov-17 13:00N 29°43' W 095°01'3 5.5
2017-Nov-17 12:28N 29°41' W 094°59'2 4.5
2017-Nov-17 12:00N 29°39' W 094°58'2 4.4
2017-Nov-17 11:30N 29°37' W 094°57'2 4.3
2017-Nov-17 11:00N 29°35' W 094°56'2 4.2
2017-Nov-17 10:30N 29°33' W 094°55'65 3.5
2017-Nov-16 15:50N 29°60' W 093°47'0 0.6
2017-Nov-16 15:30N 29°60' W 093°47'1 2.5
2017-Nov-16 14:59N 30°01' W 093°46'0 0.1
2017-Nov-16 14:30N 30°01' W 093°46'0 0.0
2017-Nov-16 13:59N 30°01' W 093°46'0 0.0
2017-Nov-16 13:23N 30°01' W 093°46'0 0.0
2017-Nov-16 12:34N 30°01' W 093°46'0 0.0
2017-Nov-16 12:30N 30°01' W 093°46'0 0.0
2017-Nov-16 12:00N 30°01' W 093°46'0 0.0
2017-Nov-16 11:30N 30°01' W 093°46'0 0.0
2017-Nov-16 11:00N 30°01' W 093°46'0 0.0
2017-Nov-16 10:30N 30°01' W 093°46'0 0.1
2017-Nov-16 10:00N 30°01' W 093°46'0 0.1
2017-Nov-16 09:30N 30°01' W 093°46'0 0.0
2017-Nov-16 09:00N 30°01' W 093°46'0 0.0
2017-Nov-16 08:30N 30°01' W 093°46'0 0.0
2017-Nov-16 08:00N 30°01' W 093°46'0 0.0
2017-Nov-16 06:38N 30°01' W 093°46'0 0.0
2017-Nov-16 06:30N 30°01' W 093°46'1 0.8
2017-Nov-16 05:43N 30°01' W 093°45'2 4.6
2017-Nov-16 05:22N 30°02' W 093°44'2 4.8
2017-Nov-16 05:00N 30°03' W 093°42'3 4.6
2017-Nov-16 04:25N 30°04' W 093°39'2 4.3
2017-Nov-16 04:00N 30°04' W 093°37'2 4.4
2017-Nov-16 03:30N 30°04' W 093°35'2 4.3
2017-Nov-16 03:00N 30°04' W 093°32'2 4.4
2017-Nov-16 02:30N 30°04' W 093°30'2 3.6
2017-Nov-16 02:00N 30°04' W 093°28'2 3.7
2017-Nov-16 01:30N 30°04' W 093°25'2 4.4
2017-Nov-16 01:00N 30°04' W 093°23'2 3.8
2017-Nov-16 00:30N 30°04' W 093°21'1 1.1
2017-Nov-16 00:00N 30°04' W 093°20'2 3.8
2017-Nov-15 23:30N 30°06' W 093°19'1 2.9
2017-Nov-15 23:00N 30°05' W 093°18'0 0.7
2017-Nov-15 22:30N 30°05' W 093°17'2 4.1
2017-Nov-15 22:00N 30°03' W 093°16'2 3.4
2017-Nov-15 21:30N 30°02' W 093°15'2 3.4
2017-Nov-15 21:00N 30°01' W 093°14'2 3.6
2017-Nov-15 20:30N 29°59' W 093°12'2 4.0
2017-Nov-15 20:00N 29°58' W 093°11'2 3.9
2017-Nov-15 19:30N 29°56' W 093°09'2 4.0
2017-Nov-15 19:00N 29°56' W 093°07'2 3.8
2017-Nov-15 18:28N 29°56' W 093°05'21 2.4
2017-Nov-15 09:46N 29°56' W 092°40'0 0.1
2017-Nov-15 09:15N 29°56' W 092°40'11 2.1
2017-Nov-15 04:03N 29°54' W 092°28'0 3.9
2017-Nov-15 04:00N 29°54' W 092°28'2 3.9
2017-Nov-15 03:30N 29°53' W 092°25'2 3.8
2017-Nov-15 02:58N 29°53' W 092°23'2 3.6
2017-Nov-15 02:30N 29°51' W 092°22'2 3.4
2017-Nov-15 02:00N 29°51' W 092°20'2 3.7
2017-Nov-15 01:30N 29°50' W 092°18'2 3.8
2017-Nov-15 01:00N 29°49' W 092°17'2 4.1
2017-Nov-15 00:30N 29°48' W 092°14'2 3.6
2017-Nov-15 00:00N 29°47' W 092°13'0 1.0
2017-Nov-14 23:30N 29°47' W 092°12'1 1.9
2017-Nov-14 23:00N 29°47' W 092°11'2 4.3
2017-Nov-14 22:30N 29°47' W 092°09'2 4.3
2017-Nov-14 22:00N 29°48' W 092°06'2 4.3
2017-Nov-14 21:30N 29°48' W 092°04'2 4.6
2017-Nov-14 21:00N 29°49' W 092°01'  

Dump ship's entire track history